Main page
METAR-TAF:

METAR-TAF

Airports :

Noshahr Airport

Noshahr, Iran

latitude: 36-39-48N, longitude: 051-27-53E, elevation: 0 m

Current weather observation

The report was made 1 hour and 8 minutes ago, at 02:00 UTC
Wind 2 kt from the South/Southwest
Temperature 8°C
Humidity 81%
Pressure 1025 hPa
Visibility 10 km or more
no clouds below 1500 m and no cumulonimbus

METAR: OINN 260200Z 21002KT CAVOK 08/05 Q1025

Time: 07:38 (03:08 UTC)


TAF: missing

Weather observations and forecasts of more than 4000 airports (METAR and TAF reports).

The available stations are represented by yellow and red dots on the map.

Hover mouse over dot to see the name of the station.

Then click to see weather observations and forecasts.

To change the map : click on the green buttons with a black cross to zoom in, on the green button with a dash to zoom out, or on the green arrows for adjacent maps.


METAR-TAF: